Time;durP1;ratioP1;P1;durP2;ratioP2;P2;SDS_P1;SDS_P2;PMS_P1;PMS_P2;Temp;Humidity;BMP_temperature;BMP_pressure;BME280_temperature;BME280_humidity;BME280_pressure;Samples;Min_cycle;Max_cycle;Signal;HPM_P1;HPM_P2
2021/12/22 00:00:27;;;;;;;;;;;;;;;25.99;52.84;97845.11;578588;245;68879;-62
2021/12/22 00:02:54;;;;;;;;;;;;;;;25.97;52.74;97842.69;578617;245;68391;-62
2021/12/22 00:05:24;;;;;;;;;;;;;;;25.97;52.94;97837.30;578664;245;65008;-62
2021/12/22 00:07:52;;;;;;;;;;;;;;;25.97;52.97;97836.50;578612;245;71270;-62
2021/12/22 00:10:21;;;;;;;;;;;;;;;25.97;52.79;97839.99;578584;245;70185;-62
2021/12/22 00:12:49;;;;;;;;;;;;;;;25.96;53.34;97845.67;578595;245;63145;-62
2021/12/22 00:15:17;;;;;;;;;;;;;;;25.95;53.05;97844.08;578611;245;68857;-61
2021/12/22 00:17:45;;;;;;;;;;;;;;;25.95;53.69;97849.47;578659;245;68618;-69
2021/12/22 00:20:13;;;;;;;;;;;;;;;25.93;53.09;97847.05;578610;245;65114;-68
2021/12/22 00:22:41;;;;;;;;;;;;;;;25.94;54.89;97853.23;578603;245;68884;-61
2021/12/22 00:25:09;;;;;;;;;;;;;;;25.91;53.26;97851.91;578624;245;68756;-62
2021/12/22 00:27:37;;;;;;;;;;;;;;;25.93;53.84;97857.81;578584;245;65042;-62
2021/12/22 00:30:06;;;;;;;;;;;;;;;25.90;53.34;97859.19;583002;242;68678;-68
2021/12/22 00:32:36;;;;;;;;;;;;;;;25.89;52.99;97862.98;584676;242;66738;-69
2021/12/22 00:35:03;;;;;;;;;;;;;;;25.90;53.07;97858.39;584642;242;62993;-69
2021/12/22 00:37:31;;;;;;;;;;;;;;;25.89;53.04;97852.20;584662;242;66712;-69
2021/12/22 00:39:59;;;;;;;;;;;;;;;25.88;52.93;97853.27;584613;242;66755;-69
2021/12/22 00:42:27;;;;;;;;;;;;;;;25.87;52.98;97853.57;584655;242;62776;-69
2021/12/22 00:44:55;;;;;;;;;;;;;;;25.87;53.28;97848.98;584687;242;66750;-69
2021/12/22 00:47:24;;;;;;;;;;;;;;;25.87;53.17;97862.45;584642;242;68933;-69
2021/12/22 00:49:51;;;;;;;;;;;;;;;25.85;52.88;97859.22;584666;242;65066;-69
2021/12/22 00:52:19;;;;;;;;;;;;;;;25.85;52.95;97864.61;584697;242;68958;-61
2021/12/22 00:54:46;;;;;;;;;;;;;;;25.85;54.05;97867.30;584656;242;66405;-61
2021/12/22 00:57:16;;;;;;;;;;;;;;;25.81;53.29;97868.11;584740;242;62948;-61
2021/12/22 00:59:44;;;;;;;;;;;;;;;25.82;58.08;97864.34;584667;242;68934;-61
2021/12/22 01:02:13;;;;;;;;;;;;;;;25.80;54.56;97861.92;584684;242;68694;-62
2021/12/22 01:04:41;;;;;;;;;;;;;;;25.80;53.34;97853.84;584698;242;62941;-62
2021/12/22 01:07:09;;;;;;;;;;;;;;;25.79;55.55;97862.22;584652;242;66687;-61
2021/12/22 01:09:37;;;;;;;;;;;;;;;25.77;53.34;97854.41;584723;242;66631;-61
2021/12/22 01:12:05;;;;;;;;;;;;;;;25.74;58.08;97859.57;584679;242;65140;-62
2021/12/22 01:14:33;;;;;;;;;;;;;;;25.76;53.67;97862.79;584687;242;68861;-61
2021/12/22 01:17:02;;;;;;;;;;;;;;;25.76;53.28;97855.52;584693;242;68483;-61
2021/12/22 01:19:43;;;;;;;;;;;;;;;25.75;58.90;97856.58;584667;242;65137;-61
2021/12/22 01:22:19;;;;;;;;;;;;;;;25.72;53.93;97854.45;584110;242;68658;-62
2021/12/22 01:24:34;;;;;;;;;;;;;;;25.73;54.42;97855.25;584057;242;66814;-62
2021/12/22 01:27:08;;;;;;;;;;;;;;;25.72;54.41;97853.66;584675;242;65042;-62
2021/12/22 01:29:35;;;;;;;;;;;;;;;25.71;55.13;97854.75;584569;242;68753;-62
2021/12/22 01:32:04;;;;;;;;;;;;;;;25.69;56.82;97852.33;584630;242;68756;-62
2021/12/22 01:34:31;;;;;;;;;;;;;;;25.70;53.81;97853.95;584689;242;65130;-62
2021/12/22 01:36:59;;;;;;;;;;;;;;;25.68;54.34;97846.14;584748;242;68798;-62
2021/12/22 01:39:26;;;;;;;;;;;;;;;25.69;54.92;97846.94;584655;242;68510;-62
2021/12/22 01:41:54;;;;;;;;;;;;;;;25.68;53.81;97858.81;584702;242;65130;-62
2021/12/22 01:44:31;;;;;;;;;;;;;;;25.68;57.70;97850.73;584692;242;66339;-62
2021/12/22 01:49:50;;;;;;;;;;;;;;;25.64;57.75;97846.98;584671;242;65198;-69
2021/12/22 01:52:19;;;;;;;;;;;;;;;25.64;53.61;97838.91;584677;242;68984;-69
2021/12/22 01:54:50;;;;;;;;;;;;;;;25.62;57.86;97843.79;584702;242;66673;-69
2021/12/22 01:57:18;;;;;;;;;;;;;;;25.63;54.26;97843.48;584682;242;62540;-69
2021/12/22 01:59:47;;;;;;;;;;;;;;;25.61;58.11;97850.23;584666;242;69007;-69
2021/12/22 02:02:15;;;;;;;;;;;;;;;25.62;56.75;97841.09;584652;242;66702;-69
2021/12/22 02:04:43;;;;;;;;;;;;;;;25.58;54.99;97851.59;584692;242;63052;-70
2021/12/22 02:07:12;;;;;;;;;;;;;;;25.57;55.16;97846.52;584706;242;69082;-70
2021/12/22 02:12:18;;;;;;;;;;;;;;;25.58;53.65;97845.42;584677;242;62814;-68
2021/12/22 02:14:46;;;;;;;;;;;;;;;25.58;58.66;97840.03;584658;242;68873;-69
2021/12/22 02:17:14;;;;;;;;;;;;;;;25.55;56.18;97840.60;584681;242;68691;-61
2021/12/22 02:19:45;;;;;;;;;;;;;;;25.54;58.95;97841.70;584670;242;65142;-61
2021/12/22 02:22:15;;;;;;;;;;;;;;;25.54;58.73;97842.50;584695;242;68823;-62
2021/12/22 02:24:48;;;;;;;;;;;;;;;25.53;58.43;97842.77;584650;242;66764;-62
2021/12/22 02:27:30;;;;;;;;;;;;;;;25.51;59.07;97836.84;584672;242;65072;-62
2021/12/22 02:29:49;;;;;;;;;;;;;;;25.49;54.07;97831.77;584115;242;69024;-62
2021/12/22 02:32:49;;;;;;;;;;;;;;;25.50;57.72;97832.56;584702;242;66223;-62
2021/12/22 02:34:53;;;;;;;;;;;;;;;25.49;57.83;97836.34;583813;242;65093;-62
2021/12/22 02:37:22;;;;;;;;;;;;;;;25.46;58.15;97832.33;584750;242;66428;-62
2021/12/22 02:39:57;;;;;;;;;;;;;;;25.47;55.96;97834.72;584569;242;66724;-62
2021/12/22 02:42:24;;;;;;;;;;;;;;;25.44;60.02;97824.52;584482;242;62931;-62
2021/12/22 02:44:49;;;;;;;;;;;;;;;25.43;57.42;97820.23;584592;242;68436;-62
2021/12/22 02:47:18;;;;;;;;;;;;;;;25.44;56.02;97827.21;584657;242;68314;-62
2021/12/22 02:49:46;;;;;;;;;;;;;;;25.42;60.27;97823.98;584448;242;62953;-62
2021/12/22 02:52:15;;;;;;;;;;;;;;;25.42;58.72;97832.06;584682;242;66418;-62
2021/12/22 02:54:48;;;;;;;;;;;;;;;25.39;61.52;97832.62;584686;242;68769;-62
2021/12/22 02:57:48;;;;;;;;;;;;;;;25.38;58.34;97828.34;584495;242;65166;-62
2021/12/22 03:00:11;;;;;;;;;;;;;;;25.37;59.09;97818.67;581630;242;66094;-62
2021/12/22 03:02:33;;;;;;;;;;;;;;;25.37;56.59;97823.22;583828;242;68541;-62
2021/12/22 03:04:57;;;;;;;;;;;;;;;25.36;59.94;97819.73;584267;242;63138;-62
2021/12/22 03:07:28;;;;;;;;;;;;;;;25.36;56.73;97822.42;584502;242;66970;-62
2021/12/22 03:09:57;;;;;;;;;;;;;;;25.36;59.83;97821.63;584524;242;66444;-62
2021/12/22 03:12:24;;;;;;;;;;;;;;;25.34;57.27;97815.72;584659;242;62987;-62
2021/12/22 03:14:52;;;;;;;;;;;;;;;25.33;62.06;97824.88;584687;242;68872;-62
2021/12/22 03:17:19;;;;;;;;;;;;;;;25.34;55.58;97815.72;584712;242;68728;-62
2021/12/22 03:19:47;;;;;;;;;;;;;;;25.34;60.10;97821.89;584679;242;65100;-62
2021/12/22 03:22:18;;;;;;;;;;;;;;;25.30;59.86;97823.55;584697;242;68688;-62
2021/12/22 03:24:46;;;;;;;;;;;;;;;25.30;60.92;97823.55;584533;242;68821;-62
2021/12/22 03:27:13;;;;;;;;;;;;;;;25.31;59.47;97825.15;584639;242;65154;-62
2021/12/22 03:29:40;;;;;;;;;;;;;;;25.28;62.15;97824.91;581206;242;68957;-62
2021/12/22 03:32:08;;;;;;;;;;;;;;;25.26;57.01;97825.18;578621;245;68669;-62
2021/12/22 03:34:36;;;;;;;;;;;;;;;25.27;56.59;97828.70;578634;245;65093;-62
2021/12/22 03:37:04;;;;;;;;;;;;;;;25.25;61.34;97828.97;578596;245;68885;-62
2021/12/22 03:39:32;;;;;;;;;;;;;;;25.26;61.22;97833.25;578589;245;68825;-62
2021/12/22 03:42:00;;;;;;;;;;;;;;;25.25;55.90;97826.27;578612;245;62938;-62
2021/12/22 03:44:28;;;;;;;;;;;;;;;25.25;62.33;97828.97;578448;245;66468;-62
2021/12/22 03:46:58;;;;;;;;;;;;;;;25.22;58.15;97832.22;578638;245;66297;-62
2021/12/22 03:49:24;;;;;;;;;;;;;;;25.22;59.95;97829.52;578578;243;63836;-69
2021/12/22 03:51:52;;;;;;;;;;;;;;;25.22;59.32;97834.91;578606;245;69602;-70
2021/12/22 03:54:19;;;;;;;;;;;;;;;25.23;60.06;97833.81;578601;245;69100;-69
2021/12/22 03:56:47;;;;;;;;;;;;;;;25.19;60.89;97838.95;578651;245;64928;-69
2021/12/22 03:59:14;;;;;;;;;;;;;;;25.19;57.58;97835.47;578593;245;66493;-70
2021/12/22 04:01:42;;;;;;;;;;;;;;;25.19;59.25;97836.27;578613;245;66577;-69
2021/12/22 04:04:15;;;;;;;;;;;;;;;25.18;57.26;97841.91;578600;245;62946;-70
2021/12/22 04:06:43;;;;;;;;;;;;;;;25.16;60.19;97838.72;578589;243;68771;-69
2021/12/22 04:09:11;;;;;;;;;;;;;;;25.14;62.82;97830.88;578646;245;68553;-69
2021/12/22 04:11:38;;;;;;;;;;;;;;;25.13;60.23;97840.05;578640;245;65014;-69
2021/12/22 04:14:06;;;;;;;;;;;;;;;25.15;57.84;97847.84;578593;245;68557;-70
2021/12/22 04:16:33;;;;;;;;;;;;;;;25.13;60.29;97844.63;578590;245;68778;-69
2021/12/22 04:19:01;;;;;;;;;;;;;;;25.12;57.90;97849.17;578588;245;65083;-70
2021/12/22 04:21:29;;;;;;;;;;;;;;;25.10;61.58;97854.05;578670;245;68972;-70
2021/12/22 04:23:57;;;;;;;;;;;;;;;25.10;62.35;97855.91;578590;245;68793;-69
2021/12/22 04:26:27;;;;;;;;;;;;;;;25.08;61.50;97858.89;578415;245;65115;-70
2021/12/22 04:28:54;;;;;;;;;;;;;;;25.07;63.82;97868.02;580045;242;68974;-62
2021/12/22 04:31:22;;;;;;;;;;;;;;;25.08;59.53;97863.48;584655;242;68673;-70
2021/12/22 04:33:49;;;;;;;;;;;;;;;25.07;58.28;97864.53;584698;242;65225;-70
2021/12/22 04:36:19;;;;;;;;;;;;;;;25.08;62.04;97863.48;584509;242;68946;-69
2021/12/22 04:38:46;;;;;;;;;;;;;;;25.06;62.01;97865.63;584684;242;68439;-62
2021/12/22 04:41:13;;;;;;;;;;;;;;;25.03;60.47;97861.61;584618;242;63654;-62
2021/12/22 04:43:41;;;;;;;;;;;;;;;25.04;62.85;97871.27;584617;242;68722;-61
2021/12/22 04:46:09;;;;;;;;;;;;;;;25.03;62.47;97869.67;584663;242;66755;-62
2021/12/22 04:48:36;;;;;;;;;;;;;;;25.02;58.69;97868.88;584718;242;62805;-62
2021/12/22 04:51:14;;;;;;;;;;;;;;;25.02;58.71;97871.56;584677;242;66576;-61
2021/12/22 04:53:47;;;;;;;;;;;;;;;25.02;62.49;97868.88;584415;242;68802;-62
2021/12/22 04:56:05;;;;;;;;;;;;;;;25.00;62.79;97872.92;584193;242;65104;-62
2021/12/22 04:58:33;;;;;;;;;;;;;;;25.01;59.88;97875.31;584675;242;68696;-62
2021/12/22 05:01:00;;;;;;;;;;;;;;;25.00;62.83;97868.34;584760;242;66470;-62
2021/12/22 05:03:28;;;;;;;;;;;;;;;24.97;61.68;97879.66;584692;242;62985;-61
2021/12/22 05:05:55;;;;;;;;;;;;;;;24.97;59.82;97868.90;584674;242;66402;-62
2021/12/22 05:08:23;;;;;;;;;;;;;;;24.98;60.01;97875.88;584655;242;67152;-62
2021/12/22 05:10:50;;;;;;;;;;;;;;;24.96;60.50;97877.23;584612;242;62875;-62
2021/12/22 05:13:17;;;;;;;;;;;;;;;24.95;58.21;97883.70;584737;242;66503;-62
2021/12/22 05:15:45;;;;;;;;;;;;;;;24.95;62.91;97886.38;584682;242;67209;-62
2021/12/22 05:18:24;;;;;;;;;;;;;;;24.92;58.70;97885.05;584685;242;63027;-62
2021/12/22 05:20:51;;;;;;;;;;;;;;;24.94;59.28;97885.59;584640;242;66412;-62
2021/12/22 05:23:19;;;;;;;;;;;;;;;24.94;60.28;97887.48;584628;242;66490;-62
2021/12/22 05:25:47;;;;;;;;;;;;;;;24.95;60.39;97886.38;584733;242;65086;-62
2021/12/22 05:28:15;;;;;;;;;;;;;;;24.90;60.69;97878.34;584643;242;68601;-62
2021/12/22 05:30:46;;;;;;;;;;;;;;;24.91;61.54;97879.94;584645;242;68495;-62
2021/12/22 05:33:12;;;;;;;;;;;;;;;24.90;61.84;97884.52;584590;242;65170;-62
2021/12/22 05:35:40;;;;;;;;;;;;;;;24.90;61.91;97884.52;584662;242;68729;-62
2021/12/22 05:38:07;;;;;;;;;;;;;;;24.90;62.46;97884.52;584712;242;67484;-62
2021/12/22 05:40:35;;;;;;;;;;;;;;;24.91;61.85;97882.63;584634;242;63696;-62
2021/12/22 05:43:02;;;;;;;;;;;;;;;24.90;62.71;97889.89;584698;242;68920;-62
2021/12/22 05:45:30;;;;;;;;;;;;;;;24.88;60.87;97894.77;584694;242;68601;-62
2021/12/22 05:47:57;;;;;;;;;;;;;;;24.90;62.75;97889.89;584643;242;65404;-62
2021/12/22 05:50:25;;;;;;;;;;;;;;;24.89;61.12;97884.80;584655;242;68949;-62
2021/12/22 05:52:52;;;;;;;;;;;;;;;24.86;57.92;97888.84;584715;242;66714;-62
2021/12/22 05:55:19;;;;;;;;;;;;;;;24.88;62.86;97885.86;584682;242;63075;-62
2021/12/22 05:57:47;;;;;;;;;;;;;;;24.89;63.46;97890.98;584660;242;66716;-62
2021/12/22 06:00:15;;;;;;;;;;;;;;;24.88;62.38;97889.38;584677;242;66615;-62
2021/12/22 06:02:43;;;;;;;;;;;;;;;24.87;63.07;97889.64;584666;242;65070;-62
2021/12/22 06:05:11;;;;;;;;;;;;;;;24.87;64.80;97892.33;584721;242;68931;-62
2021/12/22 06:07:38;;;;;;;;;;;;;;;24.87;64.70;97885.06;584660;242;68646;-62
2021/12/22 06:10:06;;;;;;;;;;;;;;;24.87;65.49;97879.69;584658;242;64902;-62
2021/12/22 06:12:34;;;;;;;;;;;;;;;24.86;66.37;97882.67;584619;242;68916;-62
2021/12/22 06:15:01;;;;;;;;;;;;;;;24.87;66.72;97882.37;584680;242;68322;-62
2021/12/22 06:17:29;;;;;;;;;;;;;;;24.87;65.48;97879.69;584680;242;65061;-62
2021/12/22 06:19:56;;;;;;;;;;;;;;;24.89;66.58;97887.49;584639;242;66543;-62
2021/12/22 06:22:25;;;;;;;;;;;;;;;24.85;67.39;97881.84;584631;242;69239;-62
2021/12/22 06:24:52;;;;;;;;;;;;;;;24.88;64.35;97892.07;584634;242;65105;-62
2021/12/22 06:27:20;;;;;;;;;;;;;;;24.87;66.66;97890.44;584630;242;68496;-62
2021/12/22 06:29:47;;;;;;;;;;;;;;;24.90;62.29;97891.78;584643;242;68747;-62
2021/12/22 06:32:15;;;;;;;;;;;;;;;24.89;67.83;97893.67;584654;242;64846;-62
2021/12/22 06:34:42;;;;;;;;;;;;;;;24.89;63.70;97895.56;584638;242;68447;-62
2021/12/22 06:37:10;;;;;;;;;;;;;;;24.89;67.28;97896.36;584687;242;65948;-62
2021/12/22 06:39:39;;;;;;;;;;;;;;;24.89;66.20;97904.42;584722;242;62839;-62
2021/12/22 06:42:10;;;;;;;;;;;;;;;24.88;63.88;97902.83;584646;242;68358;-62
2021/12/22 06:44:37;;;;;;;;;;;;;;;24.90;67.28;97899.84;584723;242;68583;-62
2021/12/22 06:47:06;;;;;;;;;;;;;;;24.89;69.39;97904.42;584508;242;65120;-62
2021/12/22 06:49:34;;;;;;;;;;;;;;;24.91;61.38;97896.89;584641;242;68915;-62
2021/12/22 06:52:01;;;;;;;;;;;;;;;24.91;68.06;97898.75;584610;242;68707;-62
2021/12/22 06:54:29;;;;;;;;;;;;;;;24.90;70.40;97903.33;584557;242;62959;-62
2021/12/22 06:56:56;;;;;;;;;;;;;;;24.91;68.32;97901.44;584441;242;66178;-60
2021/12/22 06:59:24;;;;;;;;;;;;;;;24.92;59.51;97906.56;583388;243;66498;-59
2021/12/22 07:01:51;;;;;;;;;;;;;;;25.00;58.32;97905.19;583379;243;62931;-58
2021/12/22 07:04:19;;;;;;;;;;;;;;;25.08;57.45;97912.69;582764;242;68711;-59
2021/12/22 07:06:46;;;;;;;;;;;;;;;25.15;59.15;97915.09;584564;242;68777;-58
2021/12/22 07:09:14;;;;;;;;;;;;;;;25.19;57.57;97910.78;584642;242;65074;-58
2021/12/22 07:11:43;;;;;;;;;;;;;;;25.18;57.41;97909.98;584367;242;66706;-58
2021/12/22 07:14:11;;;;;;;;;;;;;;;25.23;56.67;97919.89;584451;242;68750;-58
2021/12/22 07:16:39;;;;;;;;;;;;;;;25.25;57.77;97917.73;584640;242;62793;-59
2021/12/22 07:19:06;;;;;;;;;;;;;;;25.25;58.19;97915.05;584488;242;68796;-60
2021/12/22 07:21:34;;;;;;;;;;;;;;;25.25;60.33;97910.47;584666;242;68707;-57
2021/12/22 07:24:01;;;;;;;;;;;;;;;25.25;57.18;97907.78;584516;242;65079;-59
2021/12/22 07:26:29;;;;;;;;;;;;;;;25.27;57.26;97899.44;584557;242;68599;-57
2021/12/22 07:28:56;;;;;;;;;;;;;;;25.20;57.24;97904.31;583584;242;68417;-57
2021/12/22 07:31:24;;;;;;;;;;;;;;;25.29;55.82;97902.67;580784;244;63851;-57
2021/12/22 07:33:53;;;;;;;;;;;;;;;25.33;54.84;97901.02;580487;244;66439;-58
2021/12/22 07:36:21;;;;;;;;;;;;;;;25.39;54.93;97907.97;577361;245;67103;-57
2021/12/22 07:38:50;;;;;;;;;;;;;;;25.40;54.94;97906.91;583639;243;62752;-57
2021/12/22 07:41:19;;;;;;;;;;;;;;;25.39;55.55;97902.59;576123;246;66683;-62
2021/12/22 07:43:46;;;;;;;;;;;;;;;25.38;56.94;97903.68;577357;245;66625;-67
2021/12/22 07:46:14;;;;;;;;;;;;;;;25.36;56.41;97902.34;577359;245;65308;-67
2021/12/22 07:48:41;;;;;;;;;;;;;;;25.37;56.46;97903.95;577423;244;68733;-67
2021/12/22 07:51:09;;;;;;;;;;;;;;;25.37;56.38;97894.02;577351;245;68747;-67
2021/12/22 07:53:37;;;;;;;;;;;;;;;25.38;56.47;97895.61;577377;245;64712;-67
2021/12/22 07:56:04;;;;;;;;;;;;;;;25.38;56.37;97900.19;577391;245;68272;-67
2021/12/22 07:58:32;;;;;;;;;;;;;;;25.38;56.13;97898.30;577374;245;68756;-67
2021/12/22 08:01:00;;;;;;;;;;;;;;;25.38;56.31;97894.81;577403;245;65068;-67
2021/12/22 08:03:27;;;;;;;;;;;;;;;25.38;56.21;97889.42;577388;245;68878;-67
2021/12/22 08:05:57;;;;;;;;;;;;;;;25.38;56.08;97895.61;577168;245;68793;-67
2021/12/22 08:08:24;;;;;;;;;;;;;;;25.39;55.72;97904.48;577316;245;65046;-68
2021/12/22 08:10:52;;;;;;;;;;;;;;;25.40;55.37;97903.38;577393;245;66381;-67
2021/12/22 08:13:19;;;;;;;;;;;;;;;25.43;56.06;97911.73;577437;245;68671;-68
2021/12/22 08:15:47;;;;;;;;;;;;;;;25.42;56.24;97910.09;577342;245;65113;-68
2021/12/22 08:18:14;;;;;;;;;;;;;;;25.43;55.96;97909.03;577423;245;68926;-68
2021/12/22 08:20:42;;;;;;;;;;;;;;;25.42;55.84;97911.99;577395;245;66629;-66
2021/12/22 08:23:09;;;;;;;;;;;;;;;25.46;56.60;97913.86;577338;245;63131;-66
2021/12/22 08:25:38;;;;;;;;;;;;;;;25.43;56.11;97906.34;577430;245;68777;-67
2021/12/22 08:28:06;;;;;;;;;;;;;;;25.43;55.90;97909.03;577431;245;66721;-66
2021/12/22 08:30:34;;;;;;;;;;;;;;;25.42;55.49;97922.76;583555;243;64989;-66
2021/12/22 08:33:05;;;;;;;;;;;;;;;25.42;56.10;97915.48;589923;240;68743;-65
2021/12/22 08:35:30;;;;;;;;;;;;;;;25.44;56.45;97920.60;589874;240;66677;-66
2021/12/22 08:40:46;;;;;;;;;;;;;;;25.36;58.09;97913.91;589835;240;47081;-66
2021/12/22 08:43:15;;;;;;;;;;;;;;;25.42;55.31;97910.09;589795;240;66387;-65
2021/12/22 08:45:43;;;;;;;;;;;;;;;25.48;55.03;97910.88;589917;240;62811;-66
2021/12/22 08:48:10;;;;;;;;;;;;;;;25.50;54.66;97915.98;589942;240;66435;-65
2021/12/22 08:50:38;;;;;;;;;;;;;;;25.50;55.76;97908.72;589841;240;66766;-66
2021/12/22 08:53:05;;;;;;;;;;;;;;;25.46;55.93;97908.48;589934;240;62934;-67
2021/12/22 08:55:33;;;;;;;;;;;;;;;25.49;55.19;97907.12;589981;240;66441;-65
2021/12/22 08:58:00;;;;;;;;;;;;;;;25.49;55.75;97907.12;589802;240;66632;-66
2021/12/22 09:00:28;;;;;;;;;;;;;;;25.47;58.45;97904.69;589960;240;62938;-69
2021/12/22 09:02:55;;;;;;;;;;;;;;;25.49;55.98;97893.66;589915;240;66779;-69
2021/12/22 09:05:23;;;;;;;;;;;;;;;25.51;55.73;97894.19;589916;240;66609;-69
2021/12/22 09:07:50;;;;;;;;;;;;;;;25.52;57.49;97894.99;589989;240;62974;-69
2021/12/22 09:10:17;;;;;;;;;;;;;;;25.51;57.03;97893.36;589938;240;68393;-68
2021/12/22 09:12:45;;;;;;;;;;;;;;;25.52;57.34;97894.99;589875;240;68542;-68
2021/12/22 09:15:13;;;;;;;;;;;;;;;25.50;56.17;97886.38;589949;240;62695;-68
2021/12/22 09:17:40;;;;;;;;;;;;;;;25.50;55.94;97894.45;589942;240;69211;-68
2021/12/22 09:20:08;;;;;;;;;;;;;;;25.50;55.79;97889.08;589926;240;68593;-69
2021/12/22 09:22:35;;;;;;;;;;;;;;;25.51;56.27;97891.50;589924;240;65074;-67
2021/12/22 09:25:03;;;;;;;;;;;;;;;25.50;55.63;97887.18;589920;240;68905;-67
2021/12/22 09:27:31;;;;;;;;;;;;;;;25.51;56.30;97885.29;589892;240;68585;-66
2021/12/22 09:29:58;;;;;;;;;;;;;;;25.50;56.79;97884.49;589883;239;65094;-67
2021/12/22 09:32:26;;;;;;;;;;;;;;;25.51;56.19;97882.59;589986;240;68748;-68
2021/12/22 09:34:53;;;;;;;;;;;;;;;25.55;56.47;97883.66;589948;240;68514;-67
2021/12/22 09:37:21;;;;;;;;;;;;;;;25.54;55.94;97880.17;589952;240;65239;-67
2021/12/22 09:39:49;;;;;;;;;;;;;;;25.54;56.34;97882.06;589842;240;68826;-68
2021/12/22 09:42:17;;;;;;;;;;;;;;;25.52;56.91;97878.84;589944;240;69609;-67
2021/12/22 09:44:46;;;;;;;;;;;;;;;25.54;56.92;97873.99;589957;240;65417;-68
2021/12/22 09:47:17;;;;;;;;;;;;;;;25.55;56.83;97872.90;589954;240;66829;-68
2021/12/22 09:49:59;;;;;;;;;;;;;;;25.55;57.09;97872.90;589930;240;68822;-68
2021/12/22 09:52:23;;;;;;;;;;;;;;;25.55;56.68;97873.70;589446;240;63030;-68
2021/12/22 09:54:47;;;;;;;;;;;;;;;25.55;55.99;97871.00;589663;240;68927;-68
2021/12/22 09:57:17;;;;;;;;;;;;;;;25.55;57.59;97868.31;589950;240;66418;-67
2021/12/22 09:59:49;;;;;;;;;;;;;;;25.55;56.84;97870.20;590012;240;64970;-68
2021/12/22 10:02:17;;;;;;;;;;;;;;;25.55;56.67;97860.23;589897;240;66581;-68
2021/12/22 10:04:45;;;;;;;;;;;;;;;25.55;57.17;97856.75;589841;240;69050;-68
2021/12/22 10:07:20;;;;;;;;;;;;;;;25.54;57.12;97855.95;589974;240;64945;-68
2021/12/22 10:09:44;;;;;;;;;;;;;;;25.55;57.09;97852.16;589666;240;71689;-68
2021/12/22 10:12:25;;;;;;;;;;;;;;;25.54;57.00;97841.70;589759;240;66671;-68
2021/12/22 10:14:57;;;;;;;;;;;;;;;25.54;57.29;97839.80;589890;240;64866;-67
2021/12/22 10:17:36;;;;;;;;;;;;;;;25.56;56.63;97836.81;589657;240;66773;-69
2021/12/22 10:20:10;;;;;;;;;;;;;;;25.54;57.30;97841.70;589778;240;66501;-66
2021/12/22 10:22:40;;;;;;;;;;;;;;;25.49;57.81;97839.04;589929;240;62806;-68
2021/12/22 10:25:12;;;;;;;;;;;;;;;25.42;57.58;97842.83;589734;240;68525;-66
2021/12/22 10:27:40;;;;;;;;;;;;;;;25.45;57.35;97836.91;587414;240;68731;-69
2021/12/22 10:30:19;;;;;;;;;;;;;;;25.36;57.44;97827.81;585403;240;62790;-71
2021/12/22 10:32:46;;;;;;;;;;;;;;;25.39;57.56;97827.24;584898;242;66787;-70
2021/12/22 10:35:14;;;;;;;;;;;;;;;25.44;57.16;97829.91;584840;242;68744;-70
2021/12/22 10:37:44;;;;;;;;;;;;;;;25.46;57.11;97833.12;585101;242;65116;-70
2021/12/22 10:40:28;;;;;;;;;;;;;;;25.48;56.82;97835.52;585070;242;68855;-68
2021/12/22 10:42:57;;;;;;;;;;;;;;;25.46;56.17;97830.44;585109;242;68820;-69
2021/12/22 10:45:27;;;;;;;;;;;;;;;25.46;55.34;97843.89;585178;242;65232;-70
2021/12/22 10:50:43;;;;;;;;;;;;;;;25.45;56.14;97836.91;585181;242;68918;-70
2021/12/22 10:53:12;;;;;;;;;;;;;;;25.46;55.85;97832.33;585130;242;65061;-70
2021/12/22 10:55:41;;;;;;;;;;;;;;;25.46;56.21;97826.95;585157;242;68316;-70
2021/12/22 10:58:28;;;;;;;;;;;;;;;25.47;55.76;97823.95;585126;242;68573;-69
2021/12/22 11:01:00;;;;;;;;;;;;;;;25.47;56.03;97818.58;585160;242;65087;-69
2021/12/22 11:03:29;;;;;;;;;;;;;;;25.48;55.46;97816.68;585188;242;66214;-69
2021/12/22 11:05:57;;;;;;;;;;;;;;;25.47;55.78;97815.88;584358;242;68530;-70
2021/12/22 11:08:26;;;;;;;;;;;;;;;25.50;55.63;97811.03;585177;242;64904;-67
2021/12/22 11:10:54;;;;;;;;;;;;;;;25.51;54.54;97810.77;585106;242;66391;-67
2021/12/22 11:13:23;;;;;;;;;;;;;;;25.52;55.24;97806.18;585099;242;66356;-69
2021/12/22 11:15:51;;;;;;;;;;;;;;;25.54;55.22;97809.40;584988;242;63021;-67
2021/12/22 11:18:26;;;;;;;;;;;;;;;25.55;55.02;97808.30;585121;242;69772;-68
2021/12/22 11:21:08;;;;;;;;;;;;;;;25.54;55.61;97812.09;584404;242;69040;-68
2021/12/22 11:23:36;;;;;;;;;;;;;;;25.57;55.54;97817.70;585144;242;65028;-67
2021/12/22 11:26:04;;;;;;;;;;;;;;;25.60;56.00;97810.95;585117;242;68675;-67
2021/12/22 11:28:34;;;;;;;;;;;;;;;25.61;55.30;97812.55;585057;241;66509;-67
2021/12/22 11:31:02;;;;;;;;;;;;;;;25.61;55.13;97804.48;585178;242;62858;-68
2021/12/22 11:33:31;;;;;;;;;;;;;;;25.60;55.68;97811.75;585197;242;68863;-67
2021/12/22 11:35:59;;;;;;;;;;;;;;;25.62;55.58;97803.41;585027;242;68572;-69
2021/12/22 11:38:28;;;;;;;;;;;;;;;25.63;58.14;97797.73;585133;242;63005;-69
2021/12/22 11:41:09;;;;;;;;;;;;;;;25.60;54.68;97794.81;585084;240;66388;-69
2021/12/22 11:43:26;;;;;;;;;;;;;;;25.62;54.75;97792.64;584668;242;66676;-69
2021/12/22 11:45:55;;;;;;;;;;;;;;;25.65;54.28;97795.56;585146;242;63022;-69
2021/12/22 11:48:23;;;;;;;;;;;;;;;25.66;54.32;97789.09;585073;242;68741;-68
2021/12/22 11:50:50;;;;;;;;;;;;;;;25.68;54.78;97792.30;585112;242;66480;-68
2021/12/22 11:53:18;;;;;;;;;;;;;;;25.65;55.35;97787.49;585166;242;63870;-69
2021/12/22 11:55:46;;;;;;;;;;;;;;;25.68;55.40;97791.51;585159;242;68780;-69
2021/12/22 11:58:18;;;;;;;;;;;;;;;25.69;56.32;97798.48;585114;242;66491;-68
2021/12/22 12:00:56;;;;;;;;;;;;;;;25.69;55.76;97799.28;585172;242;62842;-67
2021/12/22 12:03:29;;;;;;;;;;;;;;;25.71;56.17;97792.83;585003;242;66995;-67
2021/12/22 12:06:06;;;;;;;;;;;;;;;25.73;54.88;97793.33;585119;242;68542;-67
2021/12/22 12:08:35;;;;;;;;;;;;;;;25.72;56.26;97787.15;585122;242;65108;-67
2021/12/22 12:11:06;;;;;;;;;;;;;;;25.74;55.21;97781.50;584997;242;66790;-67
2021/12/22 12:13:42;;;;;;;;;;;;;;;25.73;55.37;97794.16;585123;242;68687;-68
2021/12/22 12:22:19;;;;;;;;;;;;;;;25.75;53.43;97791.96;585150;242;68718;-69
2021/12/22 12:24:43;;;;;;;;;;;;;;;25.76;53.50;97790.89;584882;242;62894;-68
2021/12/22 12:27:31;;;;;;;;;;;;;;;25.76;52.63;97776.64;585131;242;68959;-69
2021/12/22 12:30:06;;;;;;;;;;;;;;;25.78;53.02;97779.83;585138;241;68484;-68
2021/12/22 12:32:41;;;;;;;;;;;;;;;25.77;52.09;97781.72;585120;242;62859;-68
2021/12/22 12:35:28;;;;;;;;;;;;;;;25.78;53.35;97786.04;585155;242;68879;-70
2021/12/22 12:38:19;;;;;;;;;;;;;;;25.78;52.50;97783.34;585073;242;66682;-69
2021/12/22 12:41:05;;;;;;;;;;;;;;;25.80;52.37;97781.15;584687;242;65202;-69
2021/12/22 12:43:47;;;;;;;;;;;;;;;25.79;53.56;97784.94;585081;242;66670;-70
2021/12/22 12:46:27;;;;;;;;;;;;;;;25.79;53.03;97786.84;585071;242;68467;-69
2021/12/22 12:49:07;;;;;;;;;;;;;;;25.78;52.47;97777.96;587050;240;63745;-69
2021/12/22 12:51:36;;;;;;;;;;;;;;;25.80;52.93;97772.28;585155;242;68846;-70
2021/12/22 12:54:11;;;;;;;;;;;;;;;25.80;52.09;97774.97;585131;242;67282;-69
2021/12/22 12:56:41;;;;;;;;;;;;;;;25.81;53.72;97777.39;584581;242;62807;-69
2021/12/22 12:59:10;;;;;;;;;;;;;;;25.82;53.06;97770.91;584878;242;68561;-72
2021/12/22 13:01:53;;;;;;;;;;;;;;;25.83;52.54;97769.02;585107;242;67351;-68
2021/12/22 13:04:26;;;;;;;;;;;;;;;25.79;53.19;97766.09;584846;242;62825;-69
2021/12/22 13:07:14;;;;;;;;;;;;;;;25.77;53.01;97765.56;585098;242;69030;-70
2021/12/22 13:09:46;;;;;;;;;;;;;;;25.82;53.20;97770.11;585083;242;66610;-70
2021/12/22 13:12:20;;;;;;;;;;;;;;;25.82;54.09;97770.91;585138;242;65225;-70
2021/12/22 13:17:39;;;;;;;;;;;;;;;25.83;54.50;97774.40;585186;242;68696;-69